sensor_id;sensor_type;location;lat;lon;timestamp;P1;durP1;ratioP1;P2;durP2;ratioP2
34978;SDS011;21185;50.978;13.720;2023-10-09T00:03:39;5.28;;;1.88;;
34978;SDS011;21185;50.978;13.720;2023-10-09T00:08:43;7.10;;;2.47;;
34978;SDS011;21185;50.978;13.720;2023-10-09T00:13:47;8.15;;;1.83;;
34978;SDS011;21185;50.978;13.720;2023-10-09T00:18:59;4.30;;;2.03;;
34978;SDS011;21185;50.978;13.720;2023-10-09T00:24:16;3.58;;;1.63;;
34978;SDS011;21185;50.978;13.720;2023-10-09T00:29:26;3.67;;;1.90;;
34978;SDS011;21185;50.978;13.720;2023-10-09T00:34:35;4.43;;;2.25;;
34978;SDS011;21185;50.978;13.720;2023-10-09T00:39:42;3.22;;;1.73;;
34978;SDS011;21185;50.978;13.720;2023-10-09T00:44:45;5.53;;;3.05;;
34978;SDS011;21185;50.978;13.720;2023-10-09T00:49:57;5.45;;;2.10;;
34978;SDS011;21185;50.978;13.720;2023-10-09T00:55:22;2.45;;;1.42;;
34978;SDS011;21185;50.978;13.720;2023-10-09T01:00:41;5.13;;;2.28;;
34978;SDS011;21185;50.978;13.720;2023-10-09T01:10:54;4.17;;;2.03;;
34978;SDS011;21185;50.978;13.720;2023-10-09T01:16:10;7.75;;;2.38;;
34978;SDS011;21185;50.978;13.720;2023-10-09T01:21:19;10.73;;;3.10;;
34978;SDS011;21185;50.978;13.720;2023-10-09T01:26:27;5.63;;;2.80;;
34978;SDS011;21185;50.978;13.720;2023-10-09T01:31:33;6.93;;;2.70;;
34978;SDS011;21185;50.978;13.720;2023-10-09T01:36:39;4.80;;;2.50;;
34978;SDS011;21185;50.978;13.720;2023-10-09T01:41:41;4.38;;;2.13;;
34978;SDS011;21185;50.978;13.720;2023-10-09T01:46:48;6.25;;;3.10;;
34978;SDS011;21185;50.978;13.720;2023-10-09T01:51:52;4.50;;;2.20;;
34978;SDS011;21185;50.978;13.720;2023-10-09T01:56:54;4.57;;;2.13;;
34978;SDS011;21185;50.978;13.720;2023-10-09T02:01:58;5.07;;;2.22;;
34978;SDS011;21185;50.978;13.720;2023-10-09T02:07:02;5.63;;;3.50;;
34978;SDS011;21185;50.978;13.720;2023-10-09T02:12:10;4.78;;;2.38;;
34978;SDS011;21185;50.978;13.720;2023-10-09T02:17:12;4.53;;;2.30;;
34978;SDS011;21185;50.978;13.720;2023-10-09T02:22:26;5.53;;;3.03;;
34978;SDS011;21185;50.978;13.720;2023-10-09T02:27:36;5.93;;;2.70;;
34978;SDS011;21185;50.978;13.720;2023-10-09T02:32:58;7.47;;;2.63;;
34978;SDS011;21185;50.978;13.720;2023-10-09T02:38:10;5.82;;;2.53;;
34978;SDS011;21185;50.978;13.720;2023-10-09T02:43:16;4.78;;;2.42;;
34978;SDS011;21185;50.978;13.720;2023-10-09T02:48:20;5.05;;;2.40;;
34978;SDS011;21185;50.978;13.720;2023-10-09T02:53:22;4.50;;;2.33;;
34978;SDS011;21185;50.978;13.720;2023-10-09T02:58:31;5.57;;;2.80;;
34978;SDS011;21185;50.978;13.720;2023-10-09T03:03:39;9.40;;;3.47;;
34978;SDS011;21185;50.978;13.720;2023-10-09T03:08:47;6.93;;;2.85;;
34978;SDS011;21185;50.978;13.720;2023-10-09T03:13:49;5.63;;;3.15;;
34978;SDS011;21185;50.978;13.720;2023-10-09T03:18:52;6.55;;;2.90;;
34978;SDS011;21185;50.978;13.720;2023-10-09T03:23:55;6.03;;;3.10;;
34978;SDS011;21185;50.978;13.720;2023-10-09T03:28:58;5.40;;;2.75;;
34978;SDS011;21185;50.978;13.720;2023-10-09T03:34:08;7.55;;;3.05;;
34978;SDS011;21185;50.978;13.720;2023-10-09T03:39:13;6.53;;;3.08;;
34978;SDS011;21185;50.978;13.720;2023-10-09T03:44:34;5.88;;;2.88;;
34978;SDS011;21185;50.978;13.720;2023-10-09T03:49:42;4.72;;;2.60;;
34978;SDS011;21185;50.978;13.720;2023-10-09T03:54:45;6.75;;;2.88;;
34978;SDS011;21185;50.978;13.720;2023-10-09T03:59:51;6.13;;;2.90;;
34978;SDS011;21185;50.978;13.720;2023-10-09T04:04:54;6.60;;;2.67;;
34978;SDS011;21185;50.978;13.720;2023-10-09T04:09:56;6.53;;;3.22;;
34978;SDS011;21185;50.978;13.720;2023-10-09T04:15:18;4.15;;;2.67;;
34978;SDS011;21185;50.978;13.720;2023-10-09T04:20:25;6.88;;;3.15;;
34978;SDS011;21185;50.978;13.720;2023-10-09T04:25:48;9.10;;;3.47;;
34978;SDS011;21185;50.978;13.720;2023-10-09T04:30:53;9.15;;;4.00;;
34978;SDS011;21185;50.978;13.720;2023-10-09T04:36:05;7.32;;;3.40;;
34978;SDS011;21185;50.978;13.720;2023-10-09T04:41:21;7.88;;;3.33;;
34978;SDS011;21185;50.978;13.720;2023-10-09T04:46:30;8.40;;;3.97;;
34978;SDS011;21185;50.978;13.720;2023-10-09T04:51:45;8.13;;;3.58;;
34978;SDS011;21185;50.978;13.720;2023-10-09T04:57:06;7.63;;;3.65;;
34978;SDS011;21185;50.978;13.720;2023-10-09T05:02:19;8.27;;;3.78;;
34978;SDS011;21185;50.978;13.720;2023-10-09T05:07:22;9.57;;;3.47;;
34978;SDS011;21185;50.978;13.720;2023-10-09T05:12:43;8.15;;;4.57;;
34978;SDS011;21185;50.978;13.720;2023-10-09T05:17:58;14.57;;;5.30;;
34978;SDS011;21185;50.978;13.720;2023-10-09T05:23:11;13.02;;;5.88;;
34978;SDS011;21185;50.978;13.720;2023-10-09T05:28:25;11.45;;;6.07;;
34978;SDS011;21185;50.978;13.720;2023-10-09T05:33:36;13.45;;;6.28;;
34978;SDS011;21185;50.978;13.720;2023-10-09T05:38:39;11.00;;;5.35;;
34978;SDS011;21185;50.978;13.720;2023-10-09T05:43:48;9.27;;;5.15;;
34978;SDS011;21185;50.978;13.720;2023-10-09T05:49:08;15.90;;;6.72;;
34978;SDS011;21185;50.978;13.720;2023-10-09T05:54:22;11.25;;;6.60;;
34978;SDS011;21185;50.978;13.720;2023-10-09T05:59:53;9.73;;;4.63;;
34978;SDS011;21185;50.978;13.720;2023-10-09T06:05:17;9.85;;;5.13;;
34978;SDS011;21185;50.978;13.720;2023-10-09T06:10:48;9.20;;;4.43;;
34978;SDS011;21185;50.978;13.720;2023-10-09T06:15:51;9.15;;;4.57;;
34978;SDS011;21185;50.978;13.720;2023-10-09T06:21:11;13.88;;;5.80;;
34978;SDS011;21185;50.978;13.720;2023-10-09T06:26:32;10.43;;;4.82;;
34978;SDS011;21185;50.978;13.720;2023-10-09T06:31:34;9.65;;;4.20;;
34978;SDS011;21185;50.978;13.720;2023-10-09T06:36:57;13.82;;;4.70;;
34978;SDS011;21185;50.978;13.720;2023-10-09T06:42:28;9.13;;;4.47;;
34978;SDS011;21185;50.978;13.720;2023-10-09T06:47:44;12.75;;;5.28;;
34978;SDS011;21185;50.978;13.720;2023-10-09T06:53:10;25.00;;;5.03;;
34978;SDS011;21185;50.978;13.720;2023-10-09T06:58:12;13.15;;;5.15;;
34978;SDS011;21185;50.978;13.720;2023-10-09T07:03:17;14.73;;;5.45;;
34978;SDS011;21185;50.978;13.720;2023-10-09T07:08:21;13.10;;;4.90;;
34978;SDS011;21185;50.978;13.720;2023-10-09T07:13:39;26.27;;;6.80;;
34978;SDS011;21185;50.978;13.720;2023-10-09T07:18:41;14.02;;;5.53;;
34978;SDS011;21185;50.978;13.720;2023-10-09T07:23:51;11.38;;;5.05;;
34978;SDS011;21185;50.978;13.720;2023-10-09T07:28:58;9.93;;;4.75;;
34978;SDS011;21185;50.978;13.720;2023-10-09T07:34:18;12.23;;;5.15;;
34978;SDS011;21185;50.978;13.720;2023-10-09T07:39:32;12.40;;;5.88;;
34978;SDS011;21185;50.978;13.720;2023-10-09T07:44:40;15.57;;;4.22;;
34978;SDS011;21185;50.978;13.720;2023-10-09T07:49:54;15.27;;;5.07;;
34978;SDS011;21185;50.978;13.720;2023-10-09T07:55:01;19.30;;;5.10;;
34978;SDS011;21185;50.978;13.720;2023-10-09T08:00:04;17.33;;;6.57;;
34978;SDS011;21185;50.978;13.720;2023-10-09T08:05:34;15.98;;;5.18;;
34978;SDS011;21185;50.978;13.720;2023-10-09T08:10:41;13.13;;;5.50;;
34978;SDS011;21185;50.978;13.720;2023-10-09T08:16:02;11.93;;;5.80;;
34978;SDS011;21185;50.978;13.720;2023-10-09T08:21:06;15.50;;;5.28;;
34978;SDS011;21185;50.978;13.720;2023-10-09T08:26:09;14.07;;;4.70;;
34978;SDS011;21185;50.978;13.720;2023-10-09T08:36:47;13.57;;;5.40;;
34978;SDS011;21185;50.978;13.720;2023-10-09T08:41:54;13.50;;;5.95;;
34978;SDS011;21185;50.978;13.720;2023-10-09T08:47:00;12.73;;;4.80;;
34978;SDS011;21185;50.978;13.720;2023-10-09T08:52:03;14.75;;;7.13;;
34978;SDS011;21185;50.978;13.720;2023-10-09T08:57:06;14.90;;;6.32;;
34978;SDS011;21185;50.978;13.720;2023-10-09T09:02:11;14.82;;;5.95;;
34978;SDS011;21185;50.978;13.720;2023-10-09T09:07:26;15.70;;;6.18;;
34978;SDS011;21185;50.978;13.720;2023-10-09T09:12:31;10.90;;;4.55;;
34978;SDS011;21185;50.978;13.720;2023-10-09T09:17:39;12.65;;;5.05;;
34978;SDS011;21185;50.978;13.720;2023-10-09T09:22:53;14.85;;;5.47;;
34978;SDS011;21185;50.978;13.720;2023-10-09T09:27:58;10.23;;;4.18;;
34978;SDS011;21185;50.978;13.720;2023-10-09T09:38:34;11.27;;;4.25;;
34978;SDS011;21185;50.978;13.720;2023-10-09T09:43:54;11.77;;;4.43;;
34978;SDS011;21185;50.978;13.720;2023-10-09T09:49:00;11.20;;;4.78;;
34978;SDS011;21185;50.978;13.720;2023-10-09T09:54:03;9.18;;;4.68;;
34978;SDS011;21185;50.978;13.720;2023-10-09T09:59:10;11.07;;;4.28;;
34978;SDS011;21185;50.978;13.720;2023-10-09T10:04:24;9.25;;;4.38;;
34978;SDS011;21185;50.978;13.720;2023-10-09T10:09:38;9.05;;;4.30;;
34978;SDS011;21185;50.978;13.720;2023-10-09T10:14:56;9.52;;;2.95;;
34978;SDS011;21185;50.978;13.720;2023-10-09T10:20:17;6.50;;;2.95;;
34978;SDS011;21185;50.978;13.720;2023-10-09T10:30:34;8.65;;;3.65;;
34978;SDS011;21185;50.978;13.720;2023-10-09T10:35:39;8.38;;;3.33;;
34978;SDS011;21185;50.978;13.720;2023-10-09T10:40:47;12.10;;;4.20;;
34978;SDS011;21185;50.978;13.720;2023-10-09T10:46:05;10.85;;;4.78;;
34978;SDS011;21185;50.978;13.720;2023-10-09T10:51:26;7.65;;;3.55;;
34978;SDS011;21185;50.978;13.720;2023-10-09T10:56:41;9.70;;;4.63;;
34978;SDS011;21185;50.978;13.720;2023-10-09T11:01:46;14.63;;;6.18;;
34978;SDS011;21185;50.978;13.720;2023-10-09T11:07:01;9.18;;;4.25;;
34978;SDS011;21185;50.978;13.720;2023-10-09T11:12:27;8.43;;;4.05;;
34978;SDS011;21185;50.978;13.720;2023-10-09T11:18:03;8.35;;;3.83;;
34978;SDS011;21185;50.978;13.720;2023-10-09T11:23:09;10.30;;;5.32;;
34978;SDS011;21185;50.978;13.720;2023-10-09T11:28:18;10.07;;;5.43;;
34978;SDS011;21185;50.978;13.720;2023-10-09T11:33:47;12.45;;;5.00;;
34978;SDS011;21185;50.978;13.720;2023-10-09T11:38:53;11.88;;;4.80;;
34978;SDS011;21185;50.978;13.720;2023-10-09T11:44:14;10.50;;;5.07;;
34978;SDS011;21185;50.978;13.720;2023-10-09T11:49:35;12.25;;;5.85;;
34978;SDS011;21185;50.978;13.720;2023-10-09T11:54:49;12.57;;;5.35;;
34978;SDS011;21185;50.978;13.720;2023-10-09T11:59:51;12.10;;;5.18;;
34978;SDS011;21185;50.978;13.720;2023-10-09T12:04:55;14.30;;;5.53;;
34978;SDS011;21185;50.978;13.720;2023-10-09T12:09:59;11.57;;;5.53;;
34978;SDS011;21185;50.978;13.720;2023-10-09T12:15:02;13.25;;;5.40;;
34978;SDS011;21185;50.978;13.720;2023-10-09T12:20:07;12.23;;;5.18;;
34978;SDS011;21185;50.978;13.720;2023-10-09T12:25:16;12.00;;;4.45;;
34978;SDS011;21185;50.978;13.720;2023-10-09T12:30:21;13.88;;;5.30;;
34978;SDS011;21185;50.978;13.720;2023-10-09T12:35:28;14.40;;;4.90;;
34978;SDS011;21185;50.978;13.720;2023-10-09T12:40:30;10.48;;;5.53;;
34978;SDS011;21185;50.978;13.720;2023-10-09T12:45:36;9.18;;;4.32;;
34978;SDS011;21185;50.978;13.720;2023-10-09T12:50:38;8.85;;;4.55;;
34978;SDS011;21185;50.978;13.720;2023-10-09T12:55:46;8.43;;;4.72;;
34978;SDS011;21185;50.978;13.720;2023-10-09T13:00:48;11.45;;;5.55;;
34978;SDS011;21185;50.978;13.720;2023-10-09T13:05:52;7.40;;;3.72;;
34978;SDS011;21185;50.978;13.720;2023-10-09T13:11:01;9.52;;;3.97;;
34978;SDS011;21185;50.978;13.720;2023-10-09T13:16:13;7.45;;;3.80;;
34978;SDS011;21185;50.978;13.720;2023-10-09T13:21:27;9.02;;;3.78;;
34978;SDS011;21185;50.978;13.720;2023-10-09T13:26:34;8.05;;;3.78;;
34978;SDS011;21185;50.978;13.720;2023-10-09T13:31:37;7.60;;;4.40;;
34978;SDS011;21185;50.978;13.720;2023-10-09T13:36:42;6.35;;;3.47;;
34978;SDS011;21185;50.978;13.720;2023-10-09T13:42:00;6.85;;;3.20;;
34978;SDS011;21185;50.978;13.720;2023-10-09T13:47:08;8.02;;;4.18;;
34978;SDS011;21185;50.978;13.720;2023-10-09T13:52:21;6.38;;;2.83;;
34978;SDS011;21185;50.978;13.720;2023-10-09T13:57:23;5.45;;;2.65;;
34978;SDS011;21185;50.978;13.720;2023-10-09T14:02:33;4.85;;;1.83;;
34978;SDS011;21185;50.978;13.720;2023-10-09T14:07:35;4.72;;;2.00;;
34978;SDS011;21185;50.978;13.720;2023-10-09T14:12:38;3.75;;;2.03;;
34978;SDS011;21185;50.978;13.720;2023-10-09T14:17:42;5.32;;;2.53;;
34978;SDS011;21185;50.978;13.720;2023-10-09T14:22:44;7.50;;;3.83;;
34978;SDS011;21185;50.978;13.720;2023-10-09T14:27:48;4.28;;;2.42;;
34978;SDS011;21185;50.978;13.720;2023-10-09T14:32:50;3.72;;;1.83;;
34978;SDS011;21185;50.978;13.720;2023-10-09T14:43:03;5.43;;;2.45;;
34978;SDS011;21185;50.978;13.720;2023-10-09T14:48:05;5.78;;;3.28;;
34978;SDS011;21185;50.978;13.720;2023-10-09T14:53:07;6.45;;;2.10;;
34978;SDS011;21185;50.978;13.720;2023-10-09T14:58:09;7.63;;;3.28;;
34978;SDS011;21185;50.978;13.720;2023-10-09T15:03:13;6.22;;;2.72;;
34978;SDS011;21185;50.978;13.720;2023-10-09T15:08:21;5.65;;;3.25;;
34978;SDS011;21185;50.978;13.720;2023-10-09T15:13:23;5.55;;;3.00;;
34978;SDS011;21185;50.978;13.720;2023-10-09T15:18:29;6.63;;;2.88;;
34978;SDS011;21185;50.978;13.720;2023-10-09T15:23:34;7.47;;;3.10;;
34978;SDS011;21185;50.978;13.720;2023-10-09T15:28:37;8.20;;;3.70;;
34978;SDS011;21185;50.978;13.720;2023-10-09T15:33:43;5.55;;;2.88;;
34978;SDS011;21185;50.978;13.720;2023-10-09T15:38:45;5.15;;;3.17;;
34978;SDS011;21185;50.978;13.720;2023-10-09T15:43:47;6.18;;;3.25;;
34978;SDS011;21185;50.978;13.720;2023-10-09T15:48:49;7.85;;;3.33;;
34978;SDS011;21185;50.978;13.720;2023-10-09T15:53:53;6.15;;;3.25;;
34978;SDS011;21185;50.978;13.720;2023-10-09T15:58:55;7.32;;;3.15;;
34978;SDS011;21185;50.978;13.720;2023-10-09T16:03:57;6.72;;;3.03;;
34978;SDS011;21185;50.978;13.720;2023-10-09T16:09:02;6.57;;;3.00;;
34978;SDS011;21185;50.978;13.720;2023-10-09T16:14:04;10.88;;;3.10;;
34978;SDS011;21185;50.978;13.720;2023-10-09T16:19:11;3.97;;;2.47;;
34978;SDS011;21185;50.978;13.720;2023-10-09T16:24:14;5.13;;;2.33;;
34978;SDS011;21185;50.978;13.720;2023-10-09T16:29:17;4.95;;;2.35;;
34978;SDS011;21185;50.978;13.720;2023-10-09T16:34:19;4.95;;;2.13;;
34978;SDS011;21185;50.978;13.720;2023-10-09T16:39:21;5.18;;;1.95;;
34978;SDS011;21185;50.978;13.720;2023-10-09T16:44:26;4.78;;;1.92;;
34978;SDS011;21185;50.978;13.720;2023-10-09T16:49:28;5.25;;;2.15;;
34978;SDS011;21185;50.978;13.720;2023-10-09T16:54:32;6.35;;;2.60;;
34978;SDS011;21185;50.978;13.720;2023-10-09T16:59:38;7.53;;;3.10;;
34978;SDS011;21185;50.978;13.720;2023-10-09T17:04:43;5.38;;;2.70;;
34978;SDS011;21185;50.978;13.720;2023-10-09T17:09:48;10.07;;;4.00;;
34978;SDS011;21185;50.978;13.720;2023-10-09T17:14:50;8.27;;;3.35;;
34978;SDS011;21185;50.978;13.720;2023-10-09T17:19:52;6.43;;;2.60;;
34978;SDS011;21185;50.978;13.720;2023-10-09T17:24:54;7.13;;;2.75;;
34978;SDS011;21185;50.978;13.720;2023-10-09T17:29:57;6.40;;;2.92;;
34978;SDS011;21185;50.978;13.720;2023-10-09T17:34:59;6.00;;;3.13;;
34978;SDS011;21185;50.978;13.720;2023-10-09T17:40:02;6.05;;;3.50;;
34978;SDS011;21185;50.978;13.720;2023-10-09T17:45:08;7.13;;;4.10;;
34978;SDS011;21185;50.978;13.720;2023-10-09T17:50:10;6.25;;;3.13;;
34978;SDS011;21185;50.978;13.720;2023-10-09T17:55:13;4.65;;;2.80;;
34978;SDS011;21185;50.978;13.720;2023-10-09T18:00:15;5.25;;;2.83;;
34978;SDS011;21185;50.978;13.720;2023-10-09T18:05:27;3.92;;;2.72;;
34978;SDS011;21185;50.978;13.720;2023-10-09T18:10:33;6.32;;;3.70;;
34978;SDS011;21185;50.978;13.720;2023-10-09T18:15:37;6.10;;;2.63;;
34978;SDS011;21185;50.978;13.720;2023-10-09T18:20:42;3.53;;;1.90;;
34978;SDS011;21185;50.978;13.720;2023-10-09T18:25:45;5.20;;;2.33;;
34978;SDS011;21185;50.978;13.720;2023-10-09T18:30:51;5.90;;;2.30;;
34978;SDS011;21185;50.978;13.720;2023-10-09T18:35:54;6.70;;;2.58;;
34978;SDS011;21185;50.978;13.720;2023-10-09T18:40:56;5.13;;;2.95;;
34978;SDS011;21185;50.978;13.720;2023-10-09T18:45:58;5.22;;;2.97;;
34978;SDS011;21185;50.978;13.720;2023-10-09T18:51:04;7.47;;;3.88;;
34978;SDS011;21185;50.978;13.720;2023-10-09T18:56:11;6.53;;;3.75;;
34978;SDS011;21185;50.978;13.720;2023-10-09T19:01:15;6.30;;;3.88;;
34978;SDS011;21185;50.978;13.720;2023-10-09T19:06:18;9.35;;;4.80;;
34978;SDS011;21185;50.978;13.720;2023-10-09T19:11:24;6.72;;;4.55;;
34978;SDS011;21185;50.978;13.720;2023-10-09T19:16:26;9.00;;;4.93;;
34978;SDS011;21185;50.978;13.720;2023-10-09T19:21:30;9.48;;;4.93;;
34978;SDS011;21185;50.978;13.720;2023-10-09T19:26:32;8.05;;;3.97;;
34978;SDS011;21185;50.978;13.720;2023-10-09T19:31:36;6.00;;;3.83;;
34978;SDS011;21185;50.978;13.720;2023-10-09T19:36:38;7.65;;;4.40;;
34978;SDS011;21185;50.978;13.720;2023-10-09T19:41:42;6.88;;;4.43;;
34978;SDS011;21185;50.978;13.720;2023-10-09T19:46:45;7.35;;;4.75;;
34978;SDS011;21185;50.978;13.720;2023-10-09T19:51:47;6.63;;;4.32;;
34978;SDS011;21185;50.978;13.720;2023-10-09T19:56:52;7.05;;;4.43;;
34978;SDS011;21185;50.978;13.720;2023-10-09T20:01:55;8.98;;;5.53;;
34978;SDS011;21185;50.978;13.720;2023-10-09T20:06:57;9.63;;;4.68;;
34978;SDS011;21185;50.978;13.720;2023-10-09T20:12:02;10.60;;;5.43;;
34978;SDS011;21185;50.978;13.720;2023-10-09T20:17:04;15.63;;;6.38;;
34978;SDS011;21185;50.978;13.720;2023-10-09T20:22:06;10.77;;;5.40;;
34978;SDS011;21185;50.978;13.720;2023-10-09T20:27:08;9.80;;;5.28;;
34978;SDS011;21185;50.978;13.720;2023-10-09T20:32:12;9.77;;;4.85;;
34978;SDS011;21185;50.978;13.720;2023-10-09T20:37:15;6.18;;;3.85;;
34978;SDS011;21185;50.978;13.720;2023-10-09T20:42:18;7.43;;;3.70;;
34978;SDS011;21185;50.978;13.720;2023-10-09T20:47:23;7.97;;;3.90;;
34978;SDS011;21185;50.978;13.720;2023-10-09T20:52:27;5.13;;;3.03;;
34978;SDS011;21185;50.978;13.720;2023-10-09T20:57:29;4.32;;;2.85;;
34978;SDS011;21185;50.978;13.720;2023-10-09T21:02:31;7.43;;;4.18;;
34978;SDS011;21185;50.978;13.720;2023-10-09T21:07:34;6.72;;;4.30;;
34978;SDS011;21185;50.978;13.720;2023-10-09T21:12:37;7.80;;;4.82;;
34978;SDS011;21185;50.978;13.720;2023-10-09T21:17:45;10.82;;;4.85;;
34978;SDS011;21185;50.978;13.720;2023-10-09T21:22:48;12.43;;;6.00;;
34978;SDS011;21185;50.978;13.720;2023-10-09T21:27:52;18.85;;;6.75;;
34978;SDS011;21185;50.978;13.720;2023-10-09T21:32:58;13.70;;;6.53;;
34978;SDS011;21185;50.978;13.720;2023-10-09T21:38:01;13.82;;;7.03;;
34978;SDS011;21185;50.978;13.720;2023-10-09T21:43:04;16.02;;;6.88;;
34978;SDS011;21185;50.978;13.720;2023-10-09T21:48:11;14.75;;;7.35;;
34978;SDS011;21185;50.978;13.720;2023-10-09T21:53:13;17.13;;;8.20;;
34978;SDS011;21185;50.978;13.720;2023-10-09T21:58:16;19.38;;;7.07;;
34978;SDS011;21185;50.978;13.720;2023-10-09T22:03:18;16.77;;;7.50;;
34978;SDS011;21185;50.978;13.720;2023-10-09T22:08:20;13.27;;;7.57;;
34978;SDS011;21185;50.978;13.720;2023-10-09T22:13:23;13.70;;;7.53;;
34978;SDS011;21185;50.978;13.720;2023-10-09T22:18:25;14.32;;;7.30;;
34978;SDS011;21185;50.978;13.720;2023-10-09T22:23:27;14.50;;;7.97;;
34978;SDS011;21185;50.978;13.720;2023-10-09T22:28:37;15.00;;;8.18;;
34978;SDS011;21185;50.978;13.720;2023-10-09T22:33:42;13.80;;;7.65;;
34978;SDS011;21185;50.978;13.720;2023-10-09T22:38:49;14.52;;;6.95;;
34978;SDS011;21185;50.978;13.720;2023-10-09T22:43:56;13.65;;;7.50;;
34978;SDS011;21185;50.978;13.720;2023-10-09T22:48:58;12.90;;;6.43;;
34978;SDS011;21185;50.978;13.720;2023-10-09T22:54:18;12.40;;;6.50;;
34978;SDS011;21185;50.978;13.720;2023-10-09T22:59:37;13.02;;;6.43;;
34978;SDS011;21185;50.978;13.720;2023-10-09T23:04:54;14.80;;;6.68;;
34978;SDS011;21185;50.978;13.720;2023-10-09T23:10:06;16.02;;;8.10;;
34978;SDS011;21185;50.978;13.720;2023-10-09T23:15:19;16.73;;;7.10;;
34978;SDS011;21185;50.978;13.720;2023-10-09T23:20:36;14.23;;;6.47;;
34978;SDS011;21185;50.978;13.720;2023-10-09T23:26:01;15.98;;;7.60;;
34978;SDS011;21185;50.978;13.720;2023-10-09T23:31:07;16.73;;;7.03;;
34978;SDS011;21185;50.978;13.720;2023-10-09T23:36:28;17.88;;;7.68;;
34978;SDS011;21185;50.978;13.720;2023-10-09T23:41:43;18.77;;;8.10;;
34978;SDS011;21185;50.978;13.720;2023-10-09T23:47:01;16.07;;;8.50;;
34978;SDS011;21185;50.978;13.720;2023-10-09T23:52:11;16.40;;;7.63;;
34978;SDS011;21185;50.978;13.720;2023-10-09T23:57:15;16.10;;;7.80;;
